createdAt,value
2018-12-17T00:00:43.817Z,16.50
2018-12-17T00:03:11.296Z,15.95
2018-12-17T00:05:41.802Z,16.57
2018-12-17T00:08:08.242Z,16.48
2018-12-17T00:10:35.715Z,16.30
2018-12-17T00:13:03.188Z,17.35
2018-12-17T00:15:30.654Z,17.90
2018-12-17T00:17:58.133Z,19.20
2018-12-17T00:20:25.604Z,15.55
2018-12-17T00:22:53.085Z,15.48
2018-12-17T00:25:20.544Z,16.85
2018-12-17T00:27:48.032Z,17.17
2018-12-17T00:30:15.512Z,17.40
2018-12-17T00:32:42.992Z,16.80
2018-12-17T00:35:10.461Z,16.30
2018-12-17T00:37:37.985Z,16.77
2018-12-17T00:40:06.676Z,17.55
2018-12-17T00:42:34.152Z,15.05
2018-12-17T00:45:01.641Z,17.52
2018-12-17T00:47:29.208Z,18.95
2018-12-17T00:49:56.677Z,15.28
2018-12-17T00:52:24.161Z,16.50
2018-12-17T00:54:51.620Z,15.45
2018-12-17T00:57:19.152Z,18.02
2018-12-17T00:59:46.644Z,16.80
2018-12-17T01:02:14.112Z,18.85
2018-12-17T01:04:41.599Z,17.17
2018-12-17T01:07:09.070Z,16.67
2018-12-17T01:09:36.551Z,18.67
2018-12-17T01:12:04.036Z,16.62
2018-12-17T01:14:31.522Z,17.10
2018-12-17T01:16:59.109Z,15.32
2018-12-17T01:19:26.745Z,16.75
2018-12-17T01:21:54.444Z,14.45
2018-12-17T01:24:21.924Z,17.82
2018-12-17T01:26:49.405Z,15.43
2018-12-17T01:29:16.880Z,17.23
2018-12-17T01:31:44.341Z,15.75
2018-12-17T01:34:11.824Z,19.05
2018-12-17T01:36:39.300Z,16.37
2018-12-17T01:39:06.908Z,17.90
2018-12-17T01:41:34.376Z,18.37
2018-12-17T01:44:01.857Z,16.82
2018-12-17T01:46:29.337Z,15.32
2018-12-17T01:48:56.824Z,16.02
2018-12-17T01:51:24.288Z,17.57
2018-12-17T01:53:51.774Z,16.00
2018-12-17T01:56:19.238Z,17.27
2018-12-17T01:58:46.720Z,15.80
2018-12-17T02:01:14.189Z,16.30
2018-12-17T02:03:41.669Z,16.45
2018-12-17T02:06:09.212Z,17.82
2018-12-17T02:08:36.764Z,16.25
2018-12-17T02:11:04.296Z,15.58
2018-12-17T02:13:31.885Z,16.93
2018-12-17T02:15:59.365Z,16.90
2018-12-17T02:18:26.937Z,14.93
2018-12-17T02:20:54.422Z,16.67
2018-12-17T02:23:21.929Z,16.75
2018-12-17T02:25:49.413Z,16.73
2018-12-17T02:28:17.055Z,16.97
2018-12-17T02:30:44.627Z,16.70
2018-12-17T02:33:12.081Z,17.87
2018-12-17T02:35:39.552Z,17.45
2018-12-17T02:38:07.012Z,18.05
2018-12-17T02:40:34.496Z,15.83
2018-12-17T02:43:01.983Z,16.85
2018-12-17T02:45:29.461Z,15.30
2018-12-17T02:47:57.000Z,16.12
2018-12-17T02:50:24.573Z,14.45
2018-12-17T02:52:52.040Z,14.45
2018-12-17T02:55:19.521Z,17.10
2018-12-17T02:57:46.993Z,16.95
2018-12-17T03:00:14.532Z,14.90
2018-12-17T03:02:42.000Z,17.48
2018-12-17T03:05:09.608Z,15.32
2018-12-17T03:07:37.077Z,16.85
2018-12-17T03:10:05.714Z,18.35
2018-12-17T03:12:33.180Z,16.95
2018-12-17T03:15:00.788Z,18.98
2018-12-17T03:17:28.249Z,17.50
2018-12-17T03:19:55.729Z,16.97
2018-12-17T03:22:23.204Z,15.78
2018-12-17T03:24:50.683Z,17.82
2018-12-17T03:27:18.156Z,15.83
2018-12-17T03:29:45.640Z,16.75
2018-12-17T03:32:13.107Z,16.17
2018-12-17T03:34:40.593Z,16.73
2018-12-17T03:37:08.064Z,17.42
2018-12-17T03:39:35.557Z,20.08
2018-12-17T03:42:03.122Z,17.17
2018-12-17T03:44:30.586Z,17.70
2018-12-17T03:46:58.058Z,18.92
2018-12-17T03:49:25.565Z,18.50
2018-12-17T03:51:53.035Z,19.92
2018-12-17T03:54:20.522Z,16.90
2018-12-17T03:56:48.236Z,17.50
2018-12-17T03:59:15.714Z,17.40
2018-12-17T04:01:43.295Z,18.95
2018-12-17T04:04:10.762Z,18.15
2018-12-17T04:06:38.246Z,17.77
2018-12-17T04:09:06.179Z,14.55
2018-12-17T04:11:33.656Z,16.55
2018-12-17T04:14:01.112Z,18.02
2018-12-17T04:16:28.590Z,17.77
2018-12-17T04:18:56.056Z,18.17
2018-12-17T04:21:23.534Z,16.32
2018-12-17T04:23:51.010Z,18.85
2018-12-17T04:26:18.481Z,17.17
2018-12-17T04:28:45.951Z,16.32
2018-12-17T04:31:13.461Z,18.32
2018-12-17T04:33:40.939Z,18.95
2018-12-17T04:36:08.452Z,13.90
2018-12-17T04:38:35.920Z,16.02
2018-12-17T04:41:03.468Z,16.20
2018-12-17T04:43:30.954Z,17.50
2018-12-17T04:45:58.448Z,19.73
2018-12-17T04:48:25.908Z,17.57
2018-12-17T04:50:53.396Z,15.45
2018-12-17T04:53:20.864Z,18.42
2018-12-17T04:55:48.340Z,16.23
2018-12-17T05:01:08.580Z,17.60
2018-12-17T05:03:36.044Z,18.07
2018-12-17T05:06:03.705Z,16.55
2018-12-17T05:08:31.168Z,18.77
2018-12-17T05:10:58.658Z,17.70
2018-12-17T05:13:26.121Z,16.07
2018-12-17T05:15:53.613Z,16.60
2018-12-17T05:18:21.072Z,17.48
2018-12-17T05:20:54.661Z,17.70
2018-12-17T05:23:22.233Z,18.65
2018-12-17T05:25:49.708Z,18.12
2018-12-17T05:28:17.220Z,14.63
2018-12-17T05:30:44.748Z,16.85
2018-12-17T05:33:12.491Z,15.80
2018-12-17T05:35:39.987Z,15.32
2018-12-17T05:38:07.444Z,15.15
2018-12-17T05:40:35.938Z,17.17
2018-12-17T05:43:03.411Z,16.82
2018-12-17T05:45:30.900Z,16.12
2018-12-17T05:47:58.356Z,17.27
2018-12-17T05:50:25.817Z,15.53
2018-12-17T05:52:53.297Z,15.90
2018-12-17T05:55:20.755Z,18.37
2018-12-17T05:57:48.241Z,16.05
2018-12-17T06:00:15.709Z,16.42
2018-12-17T06:02:43.184Z,17.27
2018-12-17T06:05:10.657Z,17.20
2018-12-17T06:07:38.129Z,16.00
2018-12-17T06:10:05.742Z,16.07
2018-12-17T06:12:33.237Z,16.52
2018-12-17T06:15:00.705Z,17.37
2018-12-17T06:17:28.177Z,14.65
2018-12-17T06:19:55.647Z,17.15
2018-12-17T06:22:23.376Z,18.07
2018-12-17T06:24:50.847Z,16.12
2018-12-17T06:27:18.327Z,17.30
2018-12-17T06:29:45.782Z,18.07
2018-12-17T06:32:13.266Z,15.90
2018-12-17T06:34:40.736Z,16.10
2018-12-17T06:37:08.211Z,16.65
2018-12-17T06:39:35.677Z,16.55
2018-12-17T06:42:03.153Z,17.15
2018-12-17T06:44:30.842Z,16.70
2018-12-17T06:46:58.333Z,16.85
2018-12-17T06:49:25.816Z,17.23
2018-12-17T06:51:53.964Z,19.37
2018-12-17T06:54:22.299Z,17.40
2018-12-17T06:56:49.837Z,19.57
2018-12-17T06:59:17.356Z,19.92
2018-12-17T07:01:44.901Z,22.13
2018-12-17T07:04:12.398Z,19.45
2018-12-17T07:06:39.873Z,17.92
2018-12-17T07:09:07.331Z,18.35
2018-12-17T07:11:34.819Z,19.62
2018-12-17T07:14:02.288Z,18.62
2018-12-17T07:16:29.760Z,19.98
2018-12-17T07:18:57.236Z,19.90
2018-12-17T07:21:24.692Z,21.87
2018-12-17T07:23:52.176Z,20.80
2018-12-17T07:26:19.647Z,21.30
2018-12-17T07:28:47.121Z,19.40
2018-12-17T07:31:14.594Z,21.35
2018-12-17T07:33:42.081Z,21.65
2018-12-17T07:36:09.545Z,23.60
2018-12-17T07:38:37.025Z,22.60
2018-12-17T07:41:04.495Z,22.25
2018-12-17T07:43:31.965Z,24.30
2018-12-17T07:45:59.436Z,25.37
2018-12-17T07:48:26.931Z,24.25
2018-12-17T07:50:54.394Z,24.45
2018-12-17T07:53:21.868Z,24.57
2018-12-17T07:55:49.343Z,22.98
2018-12-17T07:58:16.820Z,22.22
2018-12-17T08:00:44.280Z,25.08
2018-12-17T08:03:11.772Z,25.32
2018-12-17T08:05:39.553Z,21.37
2018-12-17T08:08:07.035Z,23.40
2018-12-17T08:10:34.493Z,25.17
2018-12-17T08:13:02.036Z,23.75
2018-12-17T08:15:29.495Z,24.85
2018-12-17T08:20:58.993Z,25.23
2018-12-17T08:23:26.468Z,22.55
2018-12-17T08:25:53.979Z,23.18
2018-12-17T08:28:21.517Z,21.70
2018-12-17T08:30:48.986Z,22.00
2018-12-17T08:33:16.469Z,19.73
2018-12-17T08:35:43.940Z,20.95
2018-12-17T08:38:11.521Z,22.42
2018-12-17T08:40:38.981Z,22.70
2018-12-17T08:43:06.456Z,21.97
2018-12-17T08:45:33.923Z,21.37
2018-12-17T08:48:01.407Z,21.23
2018-12-17T08:50:28.868Z,20.80
2018-12-17T08:52:56.417Z,21.40
2018-12-17T08:55:23.905Z,20.35
2018-12-17T08:57:51.377Z,20.40
2018-12-17T09:00:18.920Z,19.77
2018-12-17T09:02:46.392Z,20.95
2018-12-17T09:05:13.940Z,19.70
2018-12-17T09:07:41.413Z,20.57
2018-12-17T09:10:08.956Z,19.95
2018-12-17T09:12:36.429Z,19.52
2018-12-17T09:15:05.165Z,19.48
2018-12-17T09:17:32.644Z,20.30
2018-12-17T09:20:00.128Z,18.52
2018-12-17T09:22:27.596Z,18.75
2018-12-17T09:24:55.336Z,20.27
2018-12-17T09:27:22.873Z,18.00
2018-12-17T09:29:50.357Z,18.70
2018-12-17T09:32:17.827Z,18.10
2018-12-17T09:34:45.296Z,16.25
2018-12-17T09:37:12.770Z,17.30
2018-12-17T09:39:40.249Z,18.32
2018-12-17T09:42:07.745Z,16.60
2018-12-17T09:44:35.221Z,15.23
2018-12-17T09:47:02.692Z,15.20
2018-12-17T09:49:30.164Z,16.17
2018-12-17T09:51:57.637Z,14.25
2018-12-17T09:54:25.491Z,14.60
2018-12-17T09:56:53.065Z,15.08
2018-12-17T09:59:20.543Z,12.93
2018-12-17T10:01:50.047Z,14.05
2018-12-17T10:04:17.516Z,14.68
2018-12-17T10:06:45.025Z,13.98
2018-12-17T10:09:12.554Z,13.32
2018-12-17T10:11:40.030Z,12.90
2018-12-17T10:14:07.592Z,14.58
2018-12-17T10:16:35.061Z,14.15
2018-12-17T10:19:02.535Z,14.07
2018-12-17T10:21:30.001Z,15.40
2018-12-17T10:23:57.485Z,14.50
2018-12-17T10:26:25.016Z,14.13
2018-12-17T10:28:52.500Z,15.58
2018-12-17T10:31:19.962Z,15.00
2018-12-17T10:33:47.428Z,16.75
2018-12-17T10:36:14.888Z,16.30
2018-12-17T10:38:42.367Z,15.13
2018-12-17T10:41:09.836Z,15.55
2018-12-17T10:43:37.309Z,15.35
2018-12-17T10:46:04.766Z,17.02
2018-12-17T10:48:32.286Z,15.63
2018-12-17T10:50:59.764Z,15.75
2018-12-17T10:53:27.377Z,15.50
2018-12-17T10:55:54.848Z,16.97
2018-12-17T10:58:22.332Z,16.67
2018-12-17T11:00:55.400Z,14.65
2018-12-17T11:03:24.832Z,15.65
2018-12-17T11:05:53.881Z,16.17
2018-12-17T11:08:21.343Z,14.73
2018-12-17T11:10:48.934Z,13.30
2018-12-17T11:13:16.392Z,12.05
2018-12-17T11:15:43.876Z,12.90
2018-12-17T11:18:11.344Z,11.43
2018-12-17T11:20:38.820Z,13.68
2018-12-17T11:23:06.281Z,12.43
2018-12-17T11:25:33.756Z,13.28
2018-12-17T11:28:01.223Z,11.12
2018-12-17T11:30:28.681Z,9.38
2018-12-17T11:32:56.300Z,9.78
2018-12-17T11:35:23.772Z,10.08
2018-12-17T11:37:51.232Z,9.88
2018-12-17T11:40:18.713Z,10.50
2018-12-17T11:42:46.185Z,10.98
2018-12-17T11:45:13.652Z,11.05
2018-12-17T11:47:41.180Z,10.82
2018-12-17T11:50:08.727Z,13.03
2018-12-17T11:52:36.261Z,12.25
2018-12-17T11:55:04.477Z,10.88
2018-12-17T11:57:40.385Z,10.48
2018-12-17T12:00:08.637Z,9.95
2018-12-17T12:02:36.130Z,9.28
2018-12-17T12:05:03.862Z,12.60
2018-12-17T12:07:31.378Z,10.43
2018-12-17T12:09:58.872Z,9.20
2018-12-17T12:12:26.368Z,9.73
2018-12-17T12:14:53.845Z,10.25
2018-12-17T12:17:21.320Z,10.75
2018-12-17T12:19:48.805Z,11.55
2018-12-17T12:22:16.322Z,8.93
2018-12-17T12:24:43.776Z,9.90
2018-12-17T12:27:11.324Z,8.63
2018-12-17T12:29:38.786Z,7.97
2018-12-17T12:32:06.256Z,6.83
2018-12-17T12:34:33.710Z,7.45
2018-12-17T12:37:01.180Z,8.60
2018-12-17T12:39:28.632Z,8.18
2018-12-17T12:41:56.096Z,7.95
2018-12-17T12:44:23.548Z,8.23
2018-12-17T12:46:51.021Z,8.73
2018-12-17T12:49:18.482Z,7.37
2018-12-17T12:51:45.949Z,7.65
2018-12-17T12:54:13.409Z,7.50
2018-12-17T12:56:40.881Z,8.38
2018-12-17T12:59:08.340Z,7.72
2018-12-17T13:01:35.829Z,7.90
2018-12-17T13:04:03.415Z,8.43
2018-12-17T13:06:30.872Z,7.33
2018-12-17T13:08:58.340Z,7.58
2018-12-17T13:11:25.809Z,8.58
2018-12-17T13:13:53.285Z,8.73
2018-12-17T13:16:20.746Z,7.12
2018-12-17T13:18:48.221Z,7.12
2018-12-17T13:21:15.760Z,9.30
2018-12-17T13:23:43.218Z,8.93
2018-12-17T13:26:10.705Z,7.45
2018-12-17T13:28:39.492Z,6.30
2018-12-17T13:31:07.114Z,7.50
2018-12-17T13:33:34.574Z,8.05
2018-12-17T13:36:02.137Z,8.08
2018-12-17T13:38:29.608Z,7.22
2018-12-17T13:40:57.085Z,7.28
2018-12-17T13:43:24.549Z,8.85
2018-12-17T13:45:52.016Z,7.28
2018-12-17T13:48:19.472Z,7.78
2018-12-17T13:50:48.917Z,8.80
2018-12-17T13:53:22.053Z,7.78
2018-12-17T13:55:49.525Z,8.55
2018-12-17T13:58:17.488Z,9.78
2018-12-17T14:00:44.960Z,8.90
2018-12-17T14:03:12.412Z,7.12
2018-12-17T14:05:39.888Z,9.10
2018-12-17T14:08:07.350Z,6.90
2018-12-17T14:10:40.421Z,8.33
2018-12-17T14:13:07.955Z,7.85
2018-12-17T14:15:41.097Z,7.37
2018-12-17T14:18:10.553Z,7.53
2018-12-17T14:20:43.813Z,7.80
2018-12-17T14:23:11.300Z,6.85
2018-12-17T14:25:38.760Z,6.78
2018-12-17T14:28:07.185Z,6.40
2018-12-17T14:30:34.665Z,5.42
2018-12-17T14:33:02.128Z,6.47
2018-12-17T14:35:29.596Z,6.50
2018-12-17T14:38:02.144Z,6.40
2018-12-17T14:40:31.332Z,6.17
2018-12-17T14:42:59.151Z,6.95
2018-12-17T14:45:26.700Z,6.03
2018-12-17T14:47:54.156Z,7.15
2018-12-17T14:50:22.257Z,5.33
2018-12-17T14:52:49.705Z,7.10
2018-12-17T14:55:17.193Z,5.87
2018-12-17T14:57:44.649Z,6.95
2018-12-17T15:00:12.253Z,6.53
2018-12-17T15:02:39.728Z,7.53
2018-12-17T15:05:08.944Z,6.35
2018-12-17T15:07:36.413Z,6.10
2018-12-17T15:10:04.414Z,6.75
2018-12-17T15:12:31.987Z,6.85
2018-12-17T15:14:59.448Z,6.20
2018-12-17T15:17:26.929Z,7.10
2018-12-17T15:19:54.468Z,6.55
2018-12-17T15:22:21.952Z,6.87
2018-12-17T15:24:49.411Z,7.08
2018-12-17T15:27:16.880Z,7.78
2018-12-17T15:29:44.328Z,7.62
2018-12-17T15:32:11.885Z,7.87
2018-12-17T15:34:41.330Z,7.33
2018-12-17T15:37:08.864Z,6.62
2018-12-17T15:39:36.316Z,7.20
2018-12-17T15:42:03.790Z,7.22
2018-12-17T15:44:31.241Z,7.62
2018-12-17T15:46:58.714Z,7.58
2018-12-17T15:49:26.149Z,6.45
2018-12-17T15:51:53.625Z,7.35
2018-12-17T15:54:21.193Z,7.35
2018-12-17T15:56:48.669Z,8.10
2018-12-17T15:59:16.288Z,7.50
2018-12-17T16:01:49.911Z,9.43
2018-12-17T16:04:13.220Z,7.87
2018-12-17T16:06:40.684Z,7.30
2018-12-17T16:09:08.241Z,9.43
2018-12-17T16:11:35.702Z,8.25
2018-12-17T16:14:03.236Z,8.18
2018-12-17T16:16:30.706Z,8.18
2018-12-17T16:18:58.172Z,8.08
2018-12-17T16:21:25.636Z,8.98
2018-12-17T16:23:53.105Z,8.80
2018-12-17T16:26:20.556Z,8.60
2018-12-17T16:28:48.024Z,9.40
2018-12-17T16:31:15.476Z,8.05
2018-12-17T16:33:42.940Z,10.68
2018-12-17T16:36:10.406Z,10.13
2018-12-17T16:38:37.882Z,9.68
2018-12-17T16:41:05.353Z,11.45
2018-12-17T16:43:32.809Z,10.50
2018-12-17T16:46:00.404Z,9.50
2018-12-17T16:48:27.872Z,10.18
2018-12-17T16:50:55.343Z,10.10
2018-12-17T16:53:22.816Z,10.45
2018-12-17T16:55:50.272Z,9.98
2018-12-17T16:58:17.758Z,8.95
2018-12-17T17:00:45.494Z,9.18
2018-12-17T17:03:12.951Z,9.05
2018-12-17T17:05:40.426Z,9.48
2018-12-17T17:08:07.899Z,8.80
2018-12-17T17:13:15.812Z,8.63
2018-12-17T17:15:43.285Z,8.98
2018-12-17T17:18:10.747Z,9.18
2018-12-17T17:20:38.233Z,10.23
2018-12-17T17:23:05.776Z,9.90
2018-12-17T17:25:33.245Z,10.18
2018-12-17T17:28:00.709Z,11.80
2018-12-17T17:30:28.192Z,8.73
2018-12-17T17:32:55.693Z,13.62
2018-12-17T17:35:23.169Z,9.35
2018-12-17T17:37:50.631Z,8.53
2018-12-17T17:40:18.112Z,9.10
2018-12-17T17:42:45.584Z,8.55
2018-12-17T17:45:13.075Z,8.23
2018-12-17T17:47:40.540Z,11.05
2018-12-17T17:50:08.292Z,9.25
2018-12-17T17:52:35.752Z,7.70
2018-12-17T17:55:03.460Z,9.00
2018-12-17T17:57:30.934Z,10.65
2018-12-17T17:59:58.408Z,9.55
2018-12-17T18:02:25.872Z,9.35
2018-12-17T18:04:53.349Z,8.45
2018-12-17T18:07:20.825Z,10.10
2018-12-17T18:09:48.305Z,10.53
2018-12-17T18:12:15.759Z,8.85
2018-12-17T18:14:43.245Z,10.58
2018-12-17T18:17:10.720Z,10.40
2018-12-17T18:19:38.193Z,9.70
2018-12-17T18:22:05.668Z,9.55
2018-12-17T18:24:33.147Z,10.50
2018-12-17T18:27:00.607Z,9.28
2018-12-17T18:29:28.091Z,10.38
2018-12-17T18:31:55.574Z,9.28
2018-12-17T18:34:23.052Z,9.40
2018-12-17T18:36:50.593Z,9.78
2018-12-17T18:39:18.941Z,10.00
2018-12-17T18:41:46.416Z,9.65
2018-12-17T18:44:13.888Z,10.53
2018-12-17T18:46:41.364Z,10.50
2018-12-17T18:49:08.824Z,10.00
2018-12-17T18:51:36.301Z,11.85
2018-12-17T18:54:03.924Z,11.12
2018-12-17T18:56:31.441Z,10.38
2018-12-17T18:58:58.896Z,10.23
2018-12-17T19:01:26.397Z,11.20
2018-12-17T19:03:53.876Z,11.40
2018-12-17T19:06:21.516Z,10.48
2018-12-17T19:08:49.001Z,10.30
2018-12-17T19:11:16.490Z,10.10
2018-12-17T19:13:43.978Z,9.65
2018-12-17T19:16:11.441Z,10.08
2018-12-17T19:18:38.979Z,10.10
2018-12-17T19:21:06.457Z,10.13
2018-12-17T19:23:33.936Z,9.93
2018-12-17T19:26:01.401Z,11.45
2018-12-17T19:28:28.878Z,11.48
2018-12-17T19:31:00.085Z,10.65
2018-12-17T19:33:27.592Z,10.85
2018-12-17T19:35:55.224Z,10.80
2018-12-17T19:38:22.688Z,10.53
2018-12-17T19:40:50.176Z,11.60
2018-12-17T19:43:17.631Z,11.18
2018-12-17T19:45:45.096Z,10.72
2018-12-17T19:48:12.974Z,10.53
2018-12-17T19:50:40.459Z,10.40
2018-12-17T19:53:07.920Z,10.38
2018-12-17T19:55:35.397Z,12.55
2018-12-17T19:58:02.869Z,9.90
2018-12-17T20:00:30.338Z,10.72
2018-12-17T20:02:57.877Z,10.85
2018-12-17T20:05:25.354Z,10.65
2018-12-17T20:07:52.833Z,11.03
2018-12-17T20:10:23.205Z,10.55
2018-12-17T20:12:50.681Z,11.90
2018-12-17T20:15:18.155Z,11.35
2018-12-17T20:17:45.688Z,11.85
2018-12-17T20:20:13.168Z,10.98
2018-12-17T20:22:40.683Z,11.15
2018-12-17T20:25:08.153Z,11.43
2018-12-17T20:27:35.612Z,11.90
2018-12-17T20:30:04.112Z,10.50
2018-12-17T20:32:31.601Z,12.18
2018-12-17T20:34:59.072Z,11.30
2018-12-17T20:37:26.568Z,11.12
2018-12-17T20:39:54.021Z,10.85
2018-12-17T20:42:21.501Z,10.55
2018-12-17T20:44:48.969Z,9.98
2018-12-17T20:47:16.445Z,11.85
2018-12-17T20:49:43.913Z,11.35
2018-12-17T20:52:11.386Z,12.07
2018-12-17T20:54:38.840Z,10.08
2018-12-17T20:57:06.316Z,12.10
2018-12-17T20:59:33.777Z,9.83
2018-12-17T21:02:01.336Z,12.80
2018-12-17T21:04:28.870Z,10.95
2018-12-17T21:06:56.377Z,13.13
2018-12-17T21:09:23.876Z,12.13
2018-12-17T21:11:52.595Z,11.30
2018-12-17T21:14:23.616Z,12.53
2018-12-17T21:16:49.702Z,12.75
2018-12-17T21:19:17.161Z,11.00
2018-12-17T21:21:44.618Z,11.63
2018-12-17T21:24:12.105Z,11.18
2018-12-17T21:26:39.569Z,11.60
2018-12-17T21:29:07.052Z,11.83
2018-12-17T21:31:34.512Z,11.35
2018-12-17T21:34:01.990Z,12.18
2018-12-17T21:36:29.449Z,12.15
2018-12-17T21:38:57.104Z,11.05
2018-12-17T21:41:24.569Z,11.57
2018-12-17T21:43:52.492Z,13.05
2018-12-17T21:46:19.964Z,13.03
2018-12-17T21:48:47.429Z,12.18
2018-12-17T21:51:14.900Z,11.85
2018-12-17T21:53:42.360Z,12.50
2018-12-17T21:56:09.837Z,10.75
2018-12-17T21:58:37.302Z,13.32
2018-12-17T22:01:04.860Z,12.20
2018-12-17T22:03:32.337Z,11.10
2018-12-17T22:05:59.809Z,12.10
2018-12-17T22:08:27.282Z,11.97
2018-12-17T22:10:54.757Z,12.13
2018-12-17T22:13:22.216Z,10.75
2018-12-17T22:15:49.696Z,13.95
2018-12-17T22:18:17.165Z,13.80
2018-12-17T22:20:44.640Z,12.88
2018-12-17T22:23:12.100Z,13.10
2018-12-17T22:25:39.589Z,12.47
2018-12-17T22:28:07.050Z,13.40
2018-12-17T22:30:34.505Z,12.28
2018-12-17T22:33:01.980Z,12.90
2018-12-17T22:35:29.440Z,11.80
2018-12-17T22:37:56.913Z,10.75
2018-12-17T22:40:24.387Z,11.55
2018-12-17T22:42:51.866Z,11.53
2018-12-17T22:45:19.329Z,11.48
2018-12-17T22:47:46.800Z,13.08
2018-12-17T22:50:14.257Z,12.78
2018-12-17T22:52:41.736Z,14.25
2018-12-17T22:55:09.197Z,16.12
2018-12-17T22:57:36.671Z,12.95
2018-12-17T23:00:06.870Z,12.13
2018-12-17T23:02:34.350Z,12.82
2018-12-17T23:05:01.880Z,12.03
2018-12-17T23:07:29.362Z,12.95
2018-12-17T23:10:08.577Z,14.03
2018-12-17T23:12:47.877Z,13.32
2018-12-17T23:15:27.148Z,11.30
2018-12-17T23:17:54.695Z,11.60
2018-12-17T23:20:22.156Z,13.15
2018-12-17T23:22:49.613Z,14.03
2018-12-17T23:25:17.099Z,12.95
2018-12-17T23:27:48.206Z,12.15
2018-12-17T23:30:16.125Z,13.08
2018-12-17T23:32:43.584Z,13.15
2018-12-17T23:35:11.065Z,12.20
2018-12-17T23:37:38.602Z,11.93
2018-12-17T23:40:06.624Z,13.00
2018-12-17T23:42:34.085Z,12.00
2018-12-17T23:45:01.574Z,11.75
2018-12-17T23:47:29.501Z,12.65
2018-12-17T23:49:57.060Z,12.18
2018-12-17T23:52:24.530Z,12.60
2018-12-17T23:54:52.008Z,11.38
2018-12-17T23:57:19.473Z,10.08
2018-12-17T23:59:46.953Z,11.55
